Latest Weather Observations for Sheoaks

IDV60801

Issued at 12:31 pm EDT Friday 27 March 2015 (issued every 30 minutes, with the page automatically refreshed every 10 minutes)

About weather observations | Map of weather stations | Latest weather observations for VIC | Other Formats
Station Details ID: 087168 Name: SHEOAKS Lat: -37.91 Lon: 144.13 Height: 236.7 m
Data from the previous 72 hours. | See also: Recent months at Sheoaks
Date/Time
EDT
Temp
°C
App
Temp
°C
Dew
Point
Rel
Hum
%
Delta-T
°C
Wind Press
QNH
hPa
Press
MSL
hPa
Rain
since 9 am
mm
Dir
 
Spd
km/h
Gust
km/h
Spd
kts
Gust
kts
27/12:30pm 13.9 8.7 7.2 64 3.3 WSW 24 37 13 20 1024.5 1024.1 0.0
27/12:00pm 13.5 10.2 9.7 78 2.0 SW 17 28 9 15 1024.5 1024.1 0.0
27/11:30am 11.7 8.1 9.9 89 0.9 WSW 19 32 10 17 1024.6 1024.2 0.0
27/11:00am 12.8 8.0 8.9 77 2.0 W 24 41 13 22 1024.3 1023.9 0.0
27/10:30am 12.8 8.9 8.7 76 2.1 WSW 19 32 10 17 1024.0 1023.6 0.0
27/10:00am 11.7 8.0 9.3 85 1.2 W 19 30 10 16 1023.8 1023.4 0.0
27/09:30am 11.1 7.7 9.0 87 1.1 W 17 26 9 14 1023.6 1023.2 0.0
27/09:00am 10.7 6.9 9.1 90 0.8 W 19 30 10 16 1023.4 1023.0 2.8
27/08:30am 10.6 6.8 9.2 91 0.7 W 19 35 10 19 1022.9 1022.4 2.8
27/08:00am 10.5 6.1 9.1 91 0.7 W 22 35 12 19 1022.5 1022.0 2.8
27/07:30am 10.7 6.7 9.0 89 0.9 W 20 35 11 19 1022.2 1021.7 2.8
27/07:00am 10.8 6.8 9.1 89 0.9 W 20 33 11 18 1021.7 1021.2 2.8
27/06:30am 10.7 5.9 9.0 89 0.9 W 24 43 13 23 1021.3 1020.8 2.8
27/06:00am 10.7 6.0 9.1 90 0.8 W 24 37 13 20 1020.8 1020.3 2.8
27/05:30am 10.7 6.7 9.1 90 0.8 W 20 32 11 17 1020.7 1020.2 2.8
27/05:00am 10.8 6.8 9.1 89 0.9 W 20 33 11 18 1020.6 1020.1 2.8
27/04:30am 10.8 6.8 9.1 89 0.9 W 20 30 11 16 1020.6 1020.1 2.6
27/04:00am 10.8 6.8 9.1 89 0.9 W 20 33 11 18 1020.3 1019.9 2.6
27/03:30am 10.8 6.9 8.7 87 1.0 W 19 28 10 15 1020.2 1019.8 2.6
27/03:00am 11.0 7.0 9.1 88 1.0 W 20 28 11 15 1020.3 1019.9 2.6
27/02:30am 10.9 6.6 9.2 89 0.9 W 22 35 12 19 1020.1 1019.7 2.6
27/02:00am 11.2 6.5 9.1 87 1.1 W 24 35 13 19 1019.9 1019.5 2.6
27/01:30am 11.1 6.0 9.2 88 1.0 W 26 39 14 21 1019.5 1019.1 2.6
27/01:00am 11.1 6.0 9.2 88 1.0 W 26 37 14 20 1019.4 1018.9 2.6
27/12:30am 11.2 6.1 9.3 88 1.0 W 26 41 14 22 1019.4 1018.9 2.6
27/12:00am 11.1 6.7 9.0 87 1.1 W 22 37 12 20 1019.2 1018.7 2.6
 
Date/Time
EDT
Temp
°C
App
Temp
°C
Dew
Point
Rel
Hum
%
Delta-T
°C
Wind Press
QNH
hPa
Press
MSL
hPa
Rain
since 9 am
mm
Dir
 
Spd
km/h
Gust
km/h
Spd
kts
Gust
kts
26/11:30pm 11.2 6.1 9.3 88 1.0 W 26 37 14 20 1019.1 1018.6 2.6
26/11:00pm 11.4 7.1 9.5 88 1.0 W 22 33 12 18 1019.0 1018.5 2.6
26/10:30pm 11.4 5.9 9.3 87 1.1 W 28 39 15 21 1019.0 1018.5 2.6
26/10:00pm 11.5 6.0 9.2 86 1.2 W 28 44 15 24 1018.8 1018.3 2.6
26/09:30pm 11.5 5.6 9.1 85 1.2 WNW 30 44 16 24 1018.4 1017.9 2.6
26/09:00pm 11.5 6.0 9.1 85 1.2 WNW 28 46 15 25 1018.0 1017.5 2.6
26/08:44pm 11.4 5.8 8.8 84 1.3 WNW 28 48 15 26 1017.9 1017.4 2.6
26/08:30pm 11.4 5.8 8.6 83 1.4 WNW 28 44 15 24 1017.6 1017.1 2.6
26/08:19pm 11.5 5.5 8.7 83 1.4 WNW 30 52 16 28 1017.3 1016.8 2.6
26/08:00pm 11.4 5.8 8.8 84 1.3 WNW 28 43 15 23 1017.1 1016.6 2.6
26/07:30pm 11.4 5.5 9.0 85 1.2 WNW 30 50 16 27 1016.9 1016.4 2.6
26/07:22pm 11.5 5.9 8.7 83 1.4 WNW 28 46 15 25 1016.8 1016.3 2.6
26/07:00pm 11.4 5.8 8.6 83 1.4 WNW 28 44 15 24 1016.6 1016.1 2.6
26/06:30pm 11.6 5.0 8.6 82 1.5 WNW 33 61 18 33 1016.2 1015.7 2.6
26/06:00pm 11.2 5.2 8.8 85 1.2 NW 30 50 16 27 1015.7 1015.2 2.0
26/05:30pm 10.9 4.4 8.3 84 1.3 NW 32 52 17 28 1015.7 1015.2 1.4
26/05:04pm 11.8 5.0 6.9 72 2.4 NW 32 54 17 29 1015.3 1014.8 0.2
26/05:00pm 11.7 4.9 7.0 73 2.3 WNW 32 48 17 26 1015.2 1014.7 0.2
26/04:30pm 12.5 5.3 6.1 65 3.1 NW 33 54 18 29 1015.4 1014.9 0.0
26/04:00pm 12.9 5.0 4.6 57 3.8 NW 35 57 19 31 1015.4 1014.9 0.0
26/03:30pm 13.8 6.3 3.3 49 4.8 WNW 32 54 17 29 1015.6 1015.1 0.0
26/03:00pm 13.9 5.2 2.2 45 5.2 WNW 37 56 20 30 1016.1 1015.6 0.0
26/02:34pm 15.1 7.7 1.6 40 6.0 WNW 30 48 16 26 1016.1 1015.6 0.0
26/02:30pm 14.6 6.8 1.5 41 5.8 WNW 32 48 17 26 1016.2 1015.7 0.0
26/02:00pm 15.4 7.1 1.9 40 6.0 WNW 35 54 19 29 1016.3 1015.8 0.0
26/01:30pm 14.9 7.1 1.4 40 5.9 WNW 32 56 17 30 1016.6 1016.1 0.0
26/01:00pm 14.4 6.9 1.3 41 5.7 NW 30 52 16 28 1016.8 1016.3 0.0
26/12:30pm 13.4 6.0 2.0 46 5.0 WNW 30 48 16 26 1017.1 1016.6 0.0
26/12:02pm 13.2 5.3 2.4 48 4.8 WNW 33 52 18 28 1017.2 1016.7 0.0
26/12:00pm 13.3 5.7 2.8 49 4.7 WNW 32 46 17 25 1017.3 1016.8 0.0
26/11:41am 13.5 5.9 2.7 48 4.8 WNW 32 52 17 28 1017.2 1016.7 0.0
26/11:30am 12.7 5.0 2.3 49 4.6 WNW 32 46 17 25 1017.3 1016.8 0.0
26/11:00am 12.2 5.4 3.2 54 4.0 WNW 28 43 15 23 1017.4 1016.9 0.0
26/10:37am 11.8 5.1 3.6 57 3.7 WNW 28 46 15 25 1017.4 1016.9 0.0
26/10:30am 11.4 4.7 3.7 59 3.5 WNW 28 41 15 22 1017.3 1016.8 0.0
26/10:00am 10.9 5.6 5.0 67 2.7 NW 22 37 12 20 1017.3 1016.8 0.0
26/09:30am 9.9 5.1 4.9 71 2.3 NW 19 32 10 17 1017.4 1016.9 0.0
26/09:00am 9.3 5.3 4.9 74 2.0 NW 15 26 8 14 1017.3 1016.8 0.2
26/08:30am 8.3 4.2 4.5 77 1.7 NNW 15 22 8 12 1017.1 1016.6 0.2
26/08:00am 7.5 3.7 4.1 79 1.5 NW 13 20 7 11 1016.9 1016.4 0.2
26/07:30am 7.2 3.1 4.2 81 1.3 NW 15 22 8 12 1016.5 1016.0 0.2
26/07:00am 7.2 2.7 4.2 81 1.3 NW 17 28 9 15 1016.1 1015.6 0.2
26/06:30am 7.2 2.3 4.2 81 1.3 NW 19 24 10 13 1016.0 1015.5 0.2
26/06:00am 7.3 2.8 4.4 82 1.3 NW 17 24 9 13 1015.5 1015.0 0.2
26/05:30am 7.6 2.8 4.6 81 1.3 NW 19 28 10 15 1015.3 1014.8 0.2
26/05:00am 7.4 3.0 4.7 83 1.2 NW 17 24 9 13 1015.2 1014.7 0.2
26/04:30am 7.4 3.4 4.7 83 1.2 NW 15 24 8 13 1015.1 1014.6 0.2
26/04:00am 7.6 3.6 4.9 83 1.2 NW 15 22 8 12 1014.9 1014.4 0.2
26/03:30am 7.4 4.2 5.2 86 1.0 NNW 11 17 6 9 1014.8 1014.3 0.2
26/03:00am 7.7 4.3 5.7 87 0.9 NNW 13 20 7 11 1014.9 1014.4 0.2
26/02:30am 8.0 5.0 6.0 87 0.9 NNW 11 22 6 12 1014.9 1014.4 0.2
26/02:00am 8.1 5.5 5.9 86 1.0 NNW 9 17 5 9 1015.4 1014.9 0.0
26/01:30am 8.3 4.9 5.8 84 1.1 NW 13 22 7 12 1015.7 1015.2 0.0
26/01:00am 8.5 4.3 5.8 83 1.2 WNW 17 26 9 14 1015.8 1015.4 0.0
26/12:30am 9.2 3.6 5.6 78 1.7 W 24 44 13 24 1015.7 1015.2 0.0
26/12:12am 9.5 2.8 5.7 77 1.8 W 30 50 16 27 1015.5 1015.0 0.0
26/12:00am 9.6 3.2 5.4 75 1.9 W 28 43 15 23 1015.5 1015.0 0.0
 
Date/Time
EDT
Temp
°C
App
Temp
°C
Dew
Point
Rel
Hum
%
Delta-T
°C
Wind Press
QNH
hPa
Press
MSL
hPa
Rain
since 9 am
mm
Dir
 
Spd
km/h
Gust
km/h
Spd
kts
Gust
kts
25/11:35pm 10.1 2.9 5.7 74 2.0 WSW 33 54 18 29 1015.2 1014.7 0.0
25/11:30pm 10.6 3.6 6.0 73 2.2 W 32 50 17 27 1015.1 1014.6 0.0
25/11:22pm 13.4 8.8 3.5 51 4.5 NW 17 46 9 25 1014.9 1014.4 0.0
25/11:00pm 13.3 9.1 1.9 46 5.0 NNW 13 19 7 10 1013.8 1013.3 0.0
25/10:30pm 12.3 7.7 1.6 48 4.6 N 15 24 8 13 1013.8 1013.3 0.0
25/10:00pm 12.1 7.5 1.4 48 4.6 N 15 22 8 12 1014.1 1013.6 0.0
25/09:30pm 12.2 8.7 1.2 47 4.7 N 9 13 5 7 1014.2 1013.7 0.0
25/09:00pm 13.2 9.7 1.2 44 5.2 N 9 15 5 8 1014.2 1013.7 0.0
25/08:30pm 13.9 10.3 0.5 40 5.7 NNW 9 15 5 8 1014.4 1013.9 0.0
25/08:00pm 14.9 10.5 0.4 37 6.3 NW 13 20 7 11 1014.1 1013.6 0.0
25/07:30pm 15.9 10.8 0.9 36 6.6 NW 17 28 9 15 1013.6 1013.1 0.0
25/07:00pm 17.4 12.5 2.2 36 7.0 NW 17 28 9 15 1013.5 1013.0 0.0
25/06:30pm 18.2 13.3 2.1 34 7.4 NW 17 24 9 13 1013.2 1012.7 0.0
25/06:00pm 19.0 14.1 2.0 32 7.9 NW 17 28 9 15 1012.9 1012.4 0.0
25/05:30pm 19.5 15.2 3.2 34 7.7 NW 15 28 8 15 1012.9 1012.4 0.0
25/05:00pm 19.6 15.1 4.1 36 7.5 WNW 17 26 9 14 1013.2 1012.7 0.0
25/04:30pm 19.6 15.9 4.5 37 7.4 NNW 13 19 7 10 1013.5 1013.0 0.0
25/04:00pm 18.3 15.0 4.8 41 6.6 NW 11 22 6 12 1013.6 1013.1 0.0
25/03:30pm 18.7 15.1 4.8 40 6.8 W 13 22 7 12 1014.2 1013.7 0.0
25/03:00pm 17.3 13.7 4.9 44 6.0 WSW 13 20 7 11 1014.6 1014.1 0.0
25/02:30pm 17.5 14.4 5.4 45 5.9 W 11 19 6 10 1015.0 1014.5 0.0
25/02:00pm 17.4 14.7 5.7 46 5.7 NNE 9 19 5 10 1015.1 1014.6 0.0
25/01:30pm 16.4 14.0 5.4 48 5.3 N 7 17 4 9 1016.0 1015.5 0.0
25/01:00pm 16.6 14.0 5.9 49 5.2 N 9 17 5 9 1016.7 1016.2 0.0
25/12:30pm 16.0 12.9 5.6 50 5.0 N 11 17 6 9 1017.1 1016.6 0.0
25/12:00pm 14.7 11.9 5.2 53 4.5 NNE 9 15 5 8 1017.3 1016.8 0.0
25/11:30am 14.3 12.0 4.6 52 4.6 S 6 9 3 5 1017.7 1017.2 0.0
25/11:00am 13.7 12.1 4.3 53 4.4 WNW 2 6 1 3 1018.2 1017.7 0.0
25/10:30am 12.4 9.9 3.6 55 4.0 W 6 11 3 6 1018.6 1018.1 0.0
25/10:00am 11.9 9.8 3.7 57 3.7 W 4 7 2 4 1018.7 1018.2 0.0
25/09:30am 11.3 8.9 4.3 62 3.2 N 6 7 3 4 1018.9 1018.4 0.0
25/09:00am 8.9 6.2 3.7 70 2.3 NNW 7 9 4 5 1018.6 1018.1 0.0
25/08:30am 6.3 3.6 3.5 82 1.2 NNW 7 9 4 5 1018.7 1018.2 0.0
25/08:00am 5.2 2.3 2.4 82 1.1 N 7 9 4 5 1018.8 1018.3 0.0
25/07:30am 5.4 2.5 2.6 82 1.2 NNW 7 7 4 4 1018.6 1018.1 0.0
25/07:00am 6.0 3.3 2.6 79 1.4 NNW 6 7 3 4 1018.5 1018.0 0.0
25/06:30am 7.4 4.7 2.9 73 1.9 NW 6 7 3 4 1018.4 1017.9 0.0
25/06:00am 8.7 6.5 3.1 68 2.4 WNW 4 6 2 3 1018.3 1017.8 0.0
25/05:30am 9.3 7.1 3.3 66 2.6 W 4 6 2 3 1018.4 1017.9 0.0
25/05:00am 9.9 7.3 3.4 64 2.9 WSW 6 7 3 4 1018.7 1018.2 0.0
25/04:30am 10.0 7.4 3.3 63 2.9 SW 6 9 3 5 1018.7 1018.2 0.0
25/04:00am 10.1 6.9 3.2 62 3.0 WSW 9 15 5 8 1018.9 1018.4 0.0
25/03:30am 10.1 6.9 2.9 61 3.1 WSW 9 15 5 8 1019.1 1018.6 0.0
25/03:00am 10.3 7.1 3.1 61 3.2 WSW 9 17 5 9 1019.3 1018.8 0.0
25/02:30am 10.4 7.2 3.2 61 3.2 WSW 9 15 5 8 1019.6 1019.2 0.0
25/02:00am 10.5 7.4 3.8 63 3.0 WSW 9 17 5 9 1019.6 1019.2 0.0
25/01:30am 10.6 7.6 3.9 63 3.0 W 9 13 5 7 1019.9 1019.5 0.0
25/01:00am 10.4 7.9 3.9 64 2.9 WSW 6 9 3 5 1019.9 1019.5 0.0
25/12:30am 10.4 9.0 3.7 63 3.0 CALM 0 2 0 1 1019.6 1019.2 0.0
25/12:00am 10.7 9.3 3.7 62 3.1 CALM 0 0 0 0 1020.1 1019.7 0.0
 
Date/Time
EDT
Temp
°C
App
Temp
°C
Dew
Point
Rel
Hum
%
Delta-T
°C
Wind Press
QNH
hPa
Press
MSL
hPa
Rain
since 9 am
mm
Dir
 
Spd
km/h
Gust
km/h
Spd
kts
Gust
kts
24/11:30pm 10.9 9.6 3.9 62 3.1 CALM 0 0 0 0 1020.7 1020.2 0.0
24/11:00pm 11.1 8.6 3.6 60 3.3 SSW 6 9 3 5 1020.6 1020.1 0.0
24/10:30pm 11.3 8.6 3.6 59 3.5 SW 7 11 4 6 1020.8 1020.3 0.0
24/10:00pm 11.4 8.4 3.9 60 3.4 SSW 9 15 5 8 1020.7 1020.2 0.0
24/09:30pm 11.6 7.8 4.1 60 3.4 SSW 13 20 7 11 1020.7 1020.2 0.0
24/09:00pm 11.9 8.6 4.4 60 3.4 SSW 11 19 6 10 1020.6 1020.1 0.0
24/08:30pm 12.2 8.5 4.2 58 3.7 SSW 13 20 7 11 1020.5 1020.0 0.0
24/08:00pm 12.4 8.0 4.9 60 3.5 SSW 17 24 9 13 1020.2 1019.8 0.0
24/07:30pm 12.6 9.8 5.1 60 3.5 S 9 15 5 8 1019.9 1019.5 0.0
24/07:00pm 13.0 10.2 5.2 59 3.7 S 9 17 5 9 1019.9 1019.5 0.0
24/06:30pm 13.2 10.1 5.4 59 3.7 S 11 17 6 9 1019.4 1018.9 0.0
24/06:00pm 13.1 9.6 5.5 60 3.6 SSE 13 24 7 13 1019.2 1018.7 0.0
24/05:30pm 13.4 9.6 6.0 61 3.6 S 15 20 8 11 1018.8 1018.3 0.0
24/05:00pm 14.0 10.4 4.9 54 4.3 SSW 13 20 7 11 1018.6 1018.1 0.0
24/04:30pm 14.1 9.7 4.9 54 4.3 SSW 17 24 9 13 1018.5 1018.0 0.0
24/04:00pm 14.0 9.7 5.1 55 4.2 SW 17 26 9 14 1018.4 1017.9 0.0
24/03:30pm 14.5 11.2 4.5 51 4.7 SSW 11 20 6 11 1018.4 1017.9 0.0
24/03:00pm 14.6 10.4 3.7 48 5.0 SSW 15 24 8 13 1018.4 1017.9 0.0
24/02:30pm 14.4 10.5 3.5 48 5.0 SW 13 24 7 13 1018.5 1018.0 0.0
24/02:00pm 13.8 9.6 3.9 51 4.5 SSW 15 24 8 13 1018.8 1018.3 0.0
24/01:30pm 12.8 8.7 4.5 57 3.8 S 15 24 8 13 1019.0 1018.5 0.0
24/01:00pm 12.1 7.9 5.5 64 3.1 SW 17 22 9 12 1019.2 1018.7 0.0

Other Formats:

Comma delimited format used in spreadsheet applications
http://www.bom.gov.au/fwo/IDV60801/IDV60801.94863.axf

JavaScript Object Notation format (JSON) in row-major order
http://www.bom.gov.au/fwo/IDV60801/IDV60801.94863.json